sensor_id;sensor_type;location;lat;lon;timestamp;temperature;humidity
9861;DHT22;4969;52.304;4.968;2023-03-04T00:00:04;6.92;69.89
9861;DHT22;4969;52.304;4.968;2023-03-04T00:02:31;7.19;69.48
9861;DHT22;4969;52.304;4.968;2023-03-04T00:04:57;7.95;71.52
9861;DHT22;4969;52.304;4.968;2023-03-04T00:07:24;8.24;66.72
9861;DHT22;4969;52.304;4.968;2023-03-04T00:09:50;7.86;68.46
9861;DHT22;4969;52.304;4.968;2023-03-04T00:12:18;7.69;69.13
9861;DHT22;4969;52.304;4.968;2023-03-04T00:14:45;7.67;70.81
9861;DHT22;4969;52.304;4.968;2023-03-04T00:17:11;7.55;67.70
9861;DHT22;4969;52.304;4.968;2023-03-04T00:19:38;7.58;67.39
9861;DHT22;4969;52.304;4.968;2023-03-04T00:22:04;7.41;67.26
9861;DHT22;4969;52.304;4.968;2023-03-04T00:24:31;7.92;68.29
9861;DHT22;4969;52.304;4.968;2023-03-04T00:26:58;7.29;67.69
9861;DHT22;4969;52.304;4.968;2023-03-04T00:29:26;7.77;70.08
9861;DHT22;4969;52.304;4.968;2023-03-04T00:31:52;8.38;67.55
9861;DHT22;4969;52.304;4.968;2023-03-04T00:34:19;8.19;65.60
9861;DHT22;4969;52.304;4.968;2023-03-04T00:36:46;8.73;72.41
9861;DHT22;4969;52.304;4.968;2023-03-04T00:39:13;7.71;68.13
9861;DHT22;4969;52.304;4.968;2023-03-04T00:41:39;8.40;68.41
9861;DHT22;4969;52.304;4.968;2023-03-04T00:44:06;7.82;67.11
9861;DHT22;4969;52.304;4.968;2023-03-04T00:46:34;7.78;70.90
9861;DHT22;4969;52.304;4.968;2023-03-04T00:49:01;8.09;66.94
9861;DHT22;4969;52.304;4.968;2023-03-04T00:51:27;7.44;66.94
9861;DHT22;4969;52.304;4.968;2023-03-04T00:53:54;7.92;66.73
9861;DHT22;4969;52.304;4.968;2023-03-04T00:56:21;7.36;66.45
9861;DHT22;4969;52.304;4.968;2023-03-04T00:58:47;7.98;67.88
9861;DHT22;4969;52.304;4.968;2023-03-04T01:01:14;7.37;66.00
9861;DHT22;4969;52.304;4.968;2023-03-04T01:03:41;7.03;67.05
9861;DHT22;4969;52.304;4.968;2023-03-04T01:06:08;6.92;67.97
9861;DHT22;4969;52.304;4.968;2023-03-04T01:08:35;7.57;68.46
9861;DHT22;4969;52.304;4.968;2023-03-04T01:11:02;7.15;70.31
9861;DHT22;4969;52.304;4.968;2023-03-04T01:13:29;7.16;68.23
9861;DHT22;4969;52.304;4.968;2023-03-04T01:15:55;8.12;68.48
9861;DHT22;4969;52.304;4.968;2023-03-04T01:18:22;7.37;66.18
9861;DHT22;4969;52.304;4.968;2023-03-04T01:20:50;7.92;71.89
9861;DHT22;4969;52.304;4.968;2023-03-04T01:23:17;8.96;69.79
9861;DHT22;4969;52.304;4.968;2023-03-04T01:25:43;8.20;62.45
9861;DHT22;4969;52.304;4.968;2023-03-04T01:28:10;7.74;69.54
9861;DHT22;4969;52.304;4.968;2023-03-04T01:30:37;7.92;70.15
9861;DHT22;4969;52.304;4.968;2023-03-04T01:33:03;7.61;66.25
9861;DHT22;4969;52.304;4.968;2023-03-04T01:35:30;7.26;65.16
9861;DHT22;4969;52.304;4.968;2023-03-04T01:37:58;7.77;69.42
9861;DHT22;4969;52.304;4.968;2023-03-04T01:40:24;7.95;67.31
9861;DHT22;4969;52.304;4.968;2023-03-04T01:42:51;7.85;70.28
9861;DHT22;4969;52.304;4.968;2023-03-04T01:45:19;7.33;63.91
9861;DHT22;4969;52.304;4.968;2023-03-04T01:47:46;7.01;66.42
9861;DHT22;4969;52.304;4.968;2023-03-04T01:50:19;7.60;70.01
9861;DHT22;4969;52.304;4.968;2023-03-04T01:52:46;7.19;64.84
9861;DHT22;4969;52.304;4.968;2023-03-04T01:55:19;8.10;70.08
9861;DHT22;4969;52.304;4.968;2023-03-04T01:57:46;7.34;64.43
9861;DHT22;4969;52.304;4.968;2023-03-04T02:00:20;7.47;69.15
9861;DHT22;4969;52.304;4.968;2023-03-04T02:02:50;7.33;67.10
9861;DHT22;4969;52.304;4.968;2023-03-04T02:05:18;7.09;65.97
9861;DHT22;4969;52.304;4.968;2023-03-04T02:07:45;6.96;67.14
9861;DHT22;4969;52.304;4.968;2023-03-04T02:10:11;6.99;66.78
9861;DHT22;4969;52.304;4.968;2023-03-04T02:12:40;6.96;66.77
9861;DHT22;4969;52.304;4.968;2023-03-04T02:15:07;8.10;64.52
9861;DHT22;4969;52.304;4.968;2023-03-04T02:17:34;6.99;66.16
9861;DHT22;4969;52.304;4.968;2023-03-04T02:20:03;7.22;65.96
9861;DHT22;4969;52.304;4.968;2023-03-04T02:22:36;7.22;65.89
9861;DHT22;4969;52.304;4.968;2023-03-04T02:25:07;6.96;66.52
9861;DHT22;4969;52.304;4.968;2023-03-04T02:27:37;7.11;65.73
9861;DHT22;4969;52.304;4.968;2023-03-04T02:30:05;7.60;70.08
9861;DHT22;4969;52.304;4.968;2023-03-04T02:32:32;7.58;70.62
9861;DHT22;4969;52.304;4.968;2023-03-04T02:34:58;7.18;66.11
9861;DHT22;4969;52.304;4.968;2023-03-04T02:37:25;7.68;68.24
9861;DHT22;4969;52.304;4.968;2023-03-04T02:39:51;8.24;69.05
9861;DHT22;4969;52.304;4.968;2023-03-04T02:42:18;8.27;64.14
9861;DHT22;4969;52.304;4.968;2023-03-04T02:44:46;8.03;64.21
9861;DHT22;4969;52.304;4.968;2023-03-04T02:47:16;7.81;67.26
9861;DHT22;4969;52.304;4.968;2023-03-04T02:49:43;7.48;64.80
9861;DHT22;4969;52.304;4.968;2023-03-04T02:52:12;7.68;65.87
9861;DHT22;4969;52.304;4.968;2023-03-04T02:54:39;7.44;68.99
9861;DHT22;4969;52.304;4.968;2023-03-04T02:57:07;7.36;66.25
9861;DHT22;4969;52.304;4.968;2023-03-04T02:59:35;8.27;66.52
9861;DHT22;4969;52.304;4.968;2023-03-04T03:02:03;8.19;66.83
9861;DHT22;4969;52.304;4.968;2023-03-04T03:04:30;7.48;68.03
9861;DHT22;4969;52.304;4.968;2023-03-04T03:06:57;7.30;66.46
9861;DHT22;4969;52.304;4.968;2023-03-04T03:09:23;6.91;70.44
9861;DHT22;4969;52.304;4.968;2023-03-04T03:11:50;7.85;66.22
9861;DHT22;4969;52.304;4.968;2023-03-04T03:14:16;7.51;69.71
9861;DHT22;4969;52.304;4.968;2023-03-04T03:16:43;8.24;72.04
9861;DHT22;4969;52.304;4.968;2023-03-04T03:19:11;7.81;64.97
9861;DHT22;4969;52.304;4.968;2023-03-04T03:21:37;7.86;75.56
9861;DHT22;4969;52.304;4.968;2023-03-04T03:24:04;7.72;65.59
9861;DHT22;4969;52.304;4.968;2023-03-04T03:26:31;7.86;66.98
9861;DHT22;4969;52.304;4.968;2023-03-04T03:28:57;7.54;67.22
9861;DHT22;4969;52.304;4.968;2023-03-04T03:31:24;8.26;68.80
9861;DHT22;4969;52.304;4.968;2023-03-04T03:33:50;7.81;67.75
9861;DHT22;4969;52.304;4.968;2023-03-04T03:36:18;8.71;65.82
9861;DHT22;4969;52.304;4.968;2023-03-04T03:38:45;8.54;65.75
9861;DHT22;4969;52.304;4.968;2023-03-04T03:41:11;7.74;66.28
9861;DHT22;4969;52.304;4.968;2023-03-04T03:43:38;8.19;73.90
9861;DHT22;4969;52.304;4.968;2023-03-04T03:46:04;7.77;67.67
9861;DHT22;4969;52.304;4.968;2023-03-04T03:48:31;7.95;66.96
9861;DHT22;4969;52.304;4.968;2023-03-04T03:50:58;7.81;69.35
9861;DHT22;4969;52.304;4.968;2023-03-04T03:53:25;7.79;69.88
9861;DHT22;4969;52.304;4.968;2023-03-04T03:55:52;7.85;68.63
9861;DHT22;4969;52.304;4.968;2023-03-04T03:58:18;8.99;72.29
9861;DHT22;4969;52.304;4.968;2023-03-04T04:00:46;8.09;66.39
9861;DHT22;4969;52.304;4.968;2023-03-04T04:03:13;8.44;67.38
9861;DHT22;4969;52.304;4.968;2023-03-04T04:05:40;8.81;68.51
9861;DHT22;4969;52.304;4.968;2023-03-04T04:08:10;8.05;67.53
9861;DHT22;4969;52.304;4.968;2023-03-04T04:10:38;7.99;68.52
9861;DHT22;4969;52.304;4.968;2023-03-04T04:13:04;8.47;76.24
9861;DHT22;4969;52.304;4.968;2023-03-04T04:15:31;8.60;71.27
9861;DHT22;4969;52.304;4.968;2023-03-04T04:17:57;7.95;67.07
9861;DHT22;4969;52.304;4.968;2023-03-04T04:20:24;8.01;69.51
9861;DHT22;4969;52.304;4.968;2023-03-04T04:22:50;8.62;74.36
9861;DHT22;4969;52.304;4.968;2023-03-04T04:25:17;9.03;67.18
9861;DHT22;4969;52.304;4.968;2023-03-04T04:27:45;8.87;64.69
9861;DHT22;4969;52.304;4.968;2023-03-04T04:30:11;9.43;71.77
9861;DHT22;4969;52.304;4.968;2023-03-04T04:32:38;8.57;63.65
9861;DHT22;4969;52.304;4.968;2023-03-04T04:35:06;8.10;69.37
9861;DHT22;4969;52.304;4.968;2023-03-04T04:37:32;8.85;71.29
9861;DHT22;4969;52.304;4.968;2023-03-04T04:39:59;8.26;70.73
9861;DHT22;4969;52.304;4.968;2023-03-04T04:42:26;8.36;70.50
9861;DHT22;4969;52.304;4.968;2023-03-04T04:44:54;8.61;66.64
9861;DHT22;4969;52.304;4.968;2023-03-04T04:47:21;8.47;65.33
9861;DHT22;4969;52.304;4.968;2023-03-04T04:49:48;8.43;75.83
9861;DHT22;4969;52.304;4.968;2023-03-04T04:52:14;7.88;66.76
9861;DHT22;4969;52.304;4.968;2023-03-04T04:54:41;7.94;71.14
9861;DHT22;4969;52.304;4.968;2023-03-04T04:57:07;8.44;67.54
9861;DHT22;4969;52.304;4.968;2023-03-04T04:59:34;8.20;66.78
9861;DHT22;4969;52.304;4.968;2023-03-04T05:02:02;7.84;71.04
9861;DHT22;4969;52.304;4.968;2023-03-04T05:04:28;7.79;72.00
9861;DHT22;4969;52.304;4.968;2023-03-04T05:06:55;8.13;72.35
9861;DHT22;4969;52.304;4.968;2023-03-04T05:09:21;8.23;68.15
9861;DHT22;4969;52.304;4.968;2023-03-04T05:11:48;8.03;69.09
9861;DHT22;4969;52.304;4.968;2023-03-04T05:14:15;7.92;69.60
9861;DHT22;4969;52.304;4.968;2023-03-04T05:16:41;9.00;75.12
9861;DHT22;4969;52.304;4.968;2023-03-04T05:19:09;8.61;68.89
9861;DHT22;4969;52.304;4.968;2023-03-04T05:21:36;8.81;70.99
9861;DHT22;4969;52.304;4.968;2023-03-04T05:24:03;10.27;73.71
9861;DHT22;4969;52.304;4.968;2023-03-04T05:26:30;10.37;69.18
9861;DHT22;4969;52.304;4.968;2023-03-04T05:28:56;9.79;70.88
9861;DHT22;4969;52.304;4.968;2023-03-04T05:31:23;10.85;73.13
9861;DHT22;4969;52.304;4.968;2023-03-04T05:33:49;11.02;70.07
9861;DHT22;4969;52.304;4.968;2023-03-04T05:36:17;10.74;70.52
9861;DHT22;4969;52.304;4.968;2023-03-04T05:38:44;10.71;66.71
9861;DHT22;4969;52.304;4.968;2023-03-04T05:41:10;8.85;66.06
9861;DHT22;4969;52.304;4.968;2023-03-04T05:43:37;7.81;69.69
9861;DHT22;4969;52.304;4.968;2023-03-04T05:46:07;7.41;71.44
9861;DHT22;4969;52.304;4.968;2023-03-04T05:48:34;7.72;70.65
9861;DHT22;4969;52.304;4.968;2023-03-04T05:51:00;7.19;71.44
9861;DHT22;4969;52.304;4.968;2023-03-04T05:53:29;7.03;72.43
9861;DHT22;4969;52.304;4.968;2023-03-04T05:55:56;7.22;71.66
9861;DHT22;4969;52.304;4.968;2023-03-04T05:58:23;6.89;72.67
9861;DHT22;4969;52.304;4.968;2023-03-04T06:00:50;6.89;72.53
9861;DHT22;4969;52.304;4.968;2023-03-04T06:03:18;7.23;72.34
9861;DHT22;4969;52.304;4.968;2023-03-04T06:05:46;7.24;71.34
9861;DHT22;4969;52.304;4.968;2023-03-04T06:08:13;7.19;71.40
9861;DHT22;4969;52.304;4.968;2023-03-04T06:10:41;7.23;75.02
9861;DHT22;4969;52.304;4.968;2023-03-04T06:13:08;7.03;72.48
9861;DHT22;4969;52.304;4.968;2023-03-04T06:15:35;7.08;75.89
9861;DHT22;4969;52.304;4.968;2023-03-04T06:18:02;7.03;71.89
9861;DHT22;4969;52.304;4.968;2023-03-04T06:20:28;7.05;72.41
9861;DHT22;4969;52.304;4.968;2023-03-04T06:22:55;7.02;73.26
9861;DHT22;4969;52.304;4.968;2023-03-04T06:25:22;7.01;73.67
9861;DHT22;4969;52.304;4.968;2023-03-04T06:27:49;6.96;74.25
9861;DHT22;4969;52.304;4.968;2023-03-04T06:30:16;6.73;75.69
9861;DHT22;4969;52.304;4.968;2023-03-04T06:32:43;6.91;75.82
9861;DHT22;4969;52.304;4.968;2023-03-04T06:35:11;6.63;76.57
9861;DHT22;4969;52.304;4.968;2023-03-04T06:37:37;6.61;76.78
9861;DHT22;4969;52.304;4.968;2023-03-04T06:40:05;6.85;76.81
9861;DHT22;4969;52.304;4.968;2023-03-04T06:42:32;7.31;76.30
9861;DHT22;4969;52.304;4.968;2023-03-04T06:45:00;6.75;76.89
9861;DHT22;4969;52.304;4.968;2023-03-04T06:47:27;6.67;77.47
9861;DHT22;4969;52.304;4.968;2023-03-04T06:49:54;6.47;78.40
9861;DHT22;4969;52.304;4.968;2023-03-04T06:52:20;6.73;79.29
9861;DHT22;4969;52.304;4.968;2023-03-04T06:54:47;6.75;77.21
9861;DHT22;4969;52.304;4.968;2023-03-04T06:57:14;6.74;77.28
9861;DHT22;4969;52.304;4.968;2023-03-04T06:59:40;6.58;77.69
9861;DHT22;4969;52.304;4.968;2023-03-04T07:02:11;6.46;78.57
9861;DHT22;4969;52.304;4.968;2023-03-04T07:04:38;6.68;77.61
9861;DHT22;4969;52.304;4.968;2023-03-04T07:07:05;6.84;77.18
9861;DHT22;4969;52.304;4.968;2023-03-04T07:09:31;6.75;76.91
9861;DHT22;4969;52.304;4.968;2023-03-04T07:11:58;6.74;77.43
9861;DHT22;4969;52.304;4.968;2023-03-04T07:14:25;6.68;76.80
9861;DHT22;4969;52.304;4.968;2023-03-04T07:16:52;7.16;77.65
9861;DHT22;4969;52.304;4.968;2023-03-04T07:19:20;7.46;78.18
9861;DHT22;4969;52.304;4.968;2023-03-04T07:21:46;7.13;75.25
9861;DHT22;4969;52.304;4.968;2023-03-04T07:24:13;7.01;75.58
9861;DHT22;4969;52.304;4.968;2023-03-04T07:26:39;6.88;76.06
9861;DHT22;4969;52.304;4.968;2023-03-04T07:29:06;7.05;77.16
9861;DHT22;4969;52.304;4.968;2023-03-04T07:31:33;7.02;75.10
9861;DHT22;4969;52.304;4.968;2023-03-04T07:34:02;6.91;76.03
9861;DHT22;4969;52.304;4.968;2023-03-04T07:36:31;6.98;75.44
9861;DHT22;4969;52.304;4.968;2023-03-04T07:38:57;7.19;75.61
9861;DHT22;4969;52.304;4.968;2023-03-04T07:41:26;6.98;76.38
9861;DHT22;4969;52.304;4.968;2023-03-04T07:43:52;6.99;76.28
9861;DHT22;4969;52.304;4.968;2023-03-04T07:46:20;7.02;76.67
9861;DHT22;4969;52.304;4.968;2023-03-04T07:48:47;7.68;80.23
9861;DHT22;4969;52.304;4.968;2023-03-04T07:51:15;7.52;74.60
9861;DHT22;4969;52.304;4.968;2023-03-04T07:53:46;7.50;75.60
9861;DHT22;4969;52.304;4.968;2023-03-04T07:56:14;7.22;76.03
9861;DHT22;4969;52.304;4.968;2023-03-04T07:58:42;7.09;77.31
9861;DHT22;4969;52.304;4.968;2023-03-04T08:01:10;7.24;77.00
9861;DHT22;4969;52.304;4.968;2023-03-04T08:03:36;7.18;76.97
9861;DHT22;4969;52.304;4.968;2023-03-04T08:06:04;7.15;77.08
9861;DHT22;4969;52.304;4.968;2023-03-04T08:08:31;7.22;76.96
9861;DHT22;4969;52.304;4.968;2023-03-04T08:10:59;7.82;79.11
9861;DHT22;4969;52.304;4.968;2023-03-04T08:13:26;7.64;78.50
9861;DHT22;4969;52.304;4.968;2023-03-04T08:15:54;8.24;77.56
9861;DHT22;4969;52.304;4.968;2023-03-04T08:18:21;8.23;73.68
9861;DHT22;4969;52.304;4.968;2023-03-04T08:20:47;8.27;74.37
9861;DHT22;4969;52.304;4.968;2023-03-04T08:23:14;8.12;74.50
9861;DHT22;4969;52.304;4.968;2023-03-04T08:25:41;7.94;74.82
9861;DHT22;4969;52.304;4.968;2023-03-04T08:28:09;8.06;75.76
9861;DHT22;4969;52.304;4.968;2023-03-04T08:30:38;8.38;75.28
9861;DHT22;4969;52.304;4.968;2023-03-04T08:33:05;8.19;75.13
9861;DHT22;4969;52.304;4.968;2023-03-04T08:35:32;7.79;75.94
9861;DHT22;4969;52.304;4.968;2023-03-04T08:38:01;7.88;80.20
9861;DHT22;4969;52.304;4.968;2023-03-04T08:40:27;8.38;77.34
9861;DHT22;4969;52.304;4.968;2023-03-04T08:42:55;8.47;76.89
9861;DHT22;4969;52.304;4.968;2023-03-04T08:45:23;8.96;78.38
9861;DHT22;4969;52.304;4.968;2023-03-04T08:47:50;9.34;76.38
9861;DHT22;4969;52.304;4.968;2023-03-04T08:50:16;8.36;75.03
9861;DHT22;4969;52.304;4.968;2023-03-04T08:52:43;8.29;75.40
9861;DHT22;4969;52.304;4.968;2023-03-04T08:55:09;8.44;79.70
9861;DHT22;4969;52.304;4.968;2023-03-04T08:57:36;7.99;77.21
9861;DHT22;4969;52.304;4.968;2023-03-04T09:00:03;8.06;77.51
9861;DHT22;4969;52.304;4.968;2023-03-04T09:02:31;8.15;77.50
9861;DHT22;4969;52.304;4.968;2023-03-04T09:04:58;8.05;79.22
9861;DHT22;4969;52.304;4.968;2023-03-04T09:07:24;7.78;79.71
9861;DHT22;4969;52.304;4.968;2023-03-04T09:09:51;8.19;78.95
9861;DHT22;4969;52.304;4.968;2023-03-04T09:12:18;8.24;79.47
9861;DHT22;4969;52.304;4.968;2023-03-04T09:14:44;8.55;77.38
9861;DHT22;4969;52.304;4.968;2023-03-04T09:17:11;8.26;77.75
9861;DHT22;4969;52.304;4.968;2023-03-04T09:19:39;9.16;78.02
9861;DHT22;4969;52.304;4.968;2023-03-04T09:22:05;8.26;77.33
9861;DHT22;4969;52.304;4.968;2023-03-04T09:24:32;8.09;78.73
9861;DHT22;4969;52.304;4.968;2023-03-04T09:26:59;8.36;78.05
9861;DHT22;4969;52.304;4.968;2023-03-04T09:29:25;8.29;77.60
9861;DHT22;4969;52.304;4.968;2023-03-04T09:31:52;8.99;82.25
9861;DHT22;4969;52.304;4.968;2023-03-04T09:34:18;8.84;75.41
9861;DHT22;4969;52.304;4.968;2023-03-04T09:36:46;8.52;77.09
9861;DHT22;4969;52.304;4.968;2023-03-04T09:39:13;8.43;76.95
9861;DHT22;4969;52.304;4.968;2023-03-04T09:41:42;8.69;76.08
9861;DHT22;4969;52.304;4.968;2023-03-04T09:44:15;8.78;78.25
9861;DHT22;4969;52.304;4.968;2023-03-04T09:46:48;8.64;75.98
9861;DHT22;4969;52.304;4.968;2023-03-04T09:49:15;8.81;74.45
9861;DHT22;4969;52.304;4.968;2023-03-04T09:51:47;8.50;73.74
9861;DHT22;4969;52.304;4.968;2023-03-04T09:54:21;8.62;74.48
9861;DHT22;4969;52.304;4.968;2023-03-04T09:56:58;8.54;73.00
9861;DHT22;4969;52.304;4.968;2023-03-04T09:59:29;8.64;72.60
9861;DHT22;4969;52.304;4.968;2023-03-04T10:01:58;9.00;76.48
9861;DHT22;4969;52.304;4.968;2023-03-04T10:04:31;8.78;72.03
9861;DHT22;4969;52.304;4.968;2023-03-04T10:07:02;8.41;73.16
9861;DHT22;4969;52.304;4.968;2023-03-04T10:09:45;8.71;73.57
9861;DHT22;4969;52.304;4.968;2023-03-04T10:12:14;9.20;74.03
9861;DHT22;4969;52.304;4.968;2023-03-04T10:14:44;9.27;73.21
9861;DHT22;4969;52.304;4.968;2023-03-04T10:17:15;8.67;75.51
9861;DHT22;4969;52.304;4.968;2023-03-04T10:19:51;8.48;76.84
9861;DHT22;4969;52.304;4.968;2023-03-04T10:22:26;8.61;76.91
9861;DHT22;4969;52.304;4.968;2023-03-04T10:24:56;8.72;75.35
9861;DHT22;4969;52.304;4.968;2023-03-04T10:27:23;9.02;74.20
9861;DHT22;4969;52.304;4.968;2023-03-04T10:29:50;8.69;74.75
9861;DHT22;4969;52.304;4.968;2023-03-04T10:32:18;9.06;73.63
9861;DHT22;4969;52.304;4.968;2023-03-04T10:34:45;9.48;73.10
9861;DHT22;4969;52.304;4.968;2023-03-04T10:37:12;9.10;73.88
9861;DHT22;4969;52.304;4.968;2023-03-04T10:39:42;9.15;73.39
9861;DHT22;4969;52.304;4.968;2023-03-04T10:42:25;9.66;72.42
9861;DHT22;4969;52.304;4.968;2023-03-04T10:44:54;9.44;71.58
9861;DHT22;4969;52.304;4.968;2023-03-04T10:47:22;8.91;74.72
9861;DHT22;4969;52.304;4.968;2023-03-04T10:49:50;8.52;76.87
9861;DHT22;4969;52.304;4.968;2023-03-04T10:52:25;8.43;77.77
9861;DHT22;4969;52.304;4.968;2023-03-04T10:54:55;8.41;78.64
9861;DHT22;4969;52.304;4.968;2023-03-04T10:57:24;8.87;79.74
9861;DHT22;4969;52.304;4.968;2023-03-04T10:59:55;8.54;77.88
9861;DHT22;4969;52.304;4.968;2023-03-04T11:02:24;8.60;78.33
9861;DHT22;4969;52.304;4.968;2023-03-04T11:04:54;8.78;80.87
9861;DHT22;4969;52.304;4.968;2023-03-04T11:07:22;8.48;78.15
9861;DHT22;4969;52.304;4.968;2023-03-04T11:09:49;8.54;78.50
9861;DHT22;4969;52.304;4.968;2023-03-04T11:12:19;8.36;79.14
9861;DHT22;4969;52.304;4.968;2023-03-04T11:14:47;8.48;78.89
9861;DHT22;4969;52.304;4.968;2023-03-04T11:17:22;8.26;80.75
9861;DHT22;4969;52.304;4.968;2023-03-04T11:19:53;8.23;81.23
9861;DHT22;4969;52.304;4.968;2023-03-04T11:22:22;8.68;81.33
9861;DHT22;4969;52.304;4.968;2023-03-04T11:24:55;8.32;80.01
9861;DHT22;4969;52.304;4.968;2023-03-04T11:27:30;8.23;78.78
9861;DHT22;4969;52.304;4.968;2023-03-04T11:30:08;8.02;79.36
9861;DHT22;4969;52.304;4.968;2023-03-04T11:32:43;8.23;81.94
9861;DHT22;4969;52.304;4.968;2023-03-04T11:35:15;7.78;82.90
9861;DHT22;4969;52.304;4.968;2023-03-04T11:37:50;8.45;83.29
9861;DHT22;4969;52.304;4.968;2023-03-04T11:40:23;8.05;82.54
9861;DHT22;4969;52.304;4.968;2023-03-04T11:42:58;8.05;83.04
9861;DHT22;4969;52.304;4.968;2023-03-04T11:45:33;8.23;82.70
9861;DHT22;4969;52.304;4.968;2023-03-04T11:48:08;8.20;82.21
9861;DHT22;4969;52.304;4.968;2023-03-04T11:50:45;8.33;80.54
9861;DHT22;4969;52.304;4.968;2023-03-04T11:53:30;8.07;78.48
9861;DHT22;4969;52.304;4.968;2023-03-04T11:56:21;7.64;78.12
9861;DHT22;4969;52.304;4.968;2023-03-04T11:59:07;7.60;78.10
9861;DHT22;4969;52.304;4.968;2023-03-04T12:01:43;7.68;78.08
9861;DHT22;4969;52.304;4.968;2023-03-04T12:04:24;7.77;76.64
9861;DHT22;4969;52.304;4.968;2023-03-04T12:07:08;7.91;78.64
9861;DHT22;4969;52.304;4.968;2023-03-04T12:09:53;7.99;79.78
9861;DHT22;4969;52.304;4.968;2023-03-04T12:12:33;8.02;75.40
9861;DHT22;4969;52.304;4.968;2023-03-04T12:15:12;8.10;78.31
9861;DHT22;4969;52.304;4.968;2023-03-04T12:18:04;8.13;76.14
9861;DHT22;4969;52.304;4.968;2023-03-04T12:20:50;8.72;77.48
9861;DHT22;4969;52.304;4.968;2023-03-04T12:23:47;8.47;74.74
9861;DHT22;4969;52.304;4.968;2023-03-04T12:26:23;8.72;76.29
9861;DHT22;4969;52.304;4.968;2023-03-04T12:28:56;8.78;74.84
9861;DHT22;4969;52.304;4.968;2023-03-04T12:31:44;8.69;73.84
9861;DHT22;4969;52.304;4.968;2023-03-04T12:34:32;8.58;73.46
9861;DHT22;4969;52.304;4.968;2023-03-04T12:37:14;8.72;74.27
9861;DHT22;4969;52.304;4.968;2023-03-04T12:39:51;8.92;69.65
9861;DHT22;4969;52.304;4.968;2023-03-04T12:42:26;9.19;77.06
9861;DHT22;4969;52.304;4.968;2023-03-04T12:44:58;8.98;67.59
9861;DHT22;4969;52.304;4.968;2023-03-04T12:47:36;8.71;69.64
9861;DHT22;4969;52.304;4.968;2023-03-04T12:50:24;8.24;69.73
9861;DHT22;4969;52.304;4.968;2023-03-04T12:52:57;8.47;68.28
9861;DHT22;4969;52.304;4.968;2023-03-04T12:55:34;8.27;69.68
9861;DHT22;4969;52.304;4.968;2023-03-04T12:58:02;8.29;69.59
9861;DHT22;4969;52.304;4.968;2023-03-04T13:00:38;8.02;69.34
9861;DHT22;4969;52.304;4.968;2023-03-04T13:03:13;8.37;68.49
9861;DHT22;4969;52.304;4.968;2023-03-04T13:05:50;9.15;69.77
9861;DHT22;4969;52.304;4.968;2023-03-04T13:08:28;8.91;69.55
9861;DHT22;4969;52.304;4.968;2023-03-04T13:11:00;8.99;69.50
9861;DHT22;4969;52.304;4.968;2023-03-04T13:13:37;8.45;68.95
9861;DHT22;4969;52.304;4.968;2023-03-04T13:16:05;8.92;70.13
9861;DHT22;4969;52.304;4.968;2023-03-04T13:18:35;8.50;67.05
9861;DHT22;4969;52.304;4.968;2023-03-04T13:21:22;8.58;71.66
9861;DHT22;4969;52.304;4.968;2023-03-04T13:23:49;8.30;68.48
9861;DHT22;4969;52.304;4.968;2023-03-04T13:26:19;8.27;67.23
9861;DHT22;4969;52.304;4.968;2023-03-04T13:28:51;8.29;66.20
9861;DHT22;4969;52.304;4.968;2023-03-04T13:31:24;8.62;66.51
9861;DHT22;4969;52.304;4.968;2023-03-04T13:34:01;8.81;66.16
9861;DHT22;4969;52.304;4.968;2023-03-04T13:39:29;8.88;65.46
9861;DHT22;4969;52.304;4.968;2023-03-04T13:41:57;8.67;63.90
9861;DHT22;4969;52.304;4.968;2023-03-04T13:44:55;8.23;64.78
9861;DHT22;4969;52.304;4.968;2023-03-04T13:47:29;8.26;65.49
9861;DHT22;4969;52.304;4.968;2023-03-04T13:50:23;8.50;64.86
9861;DHT22;4969;52.304;4.968;2023-03-04T13:52:50;8.68;68.66
9861;DHT22;4969;52.304;4.968;2023-03-04T13:55:35;8.37;65.97
9861;DHT22;4969;52.304;4.968;2023-03-04T13:58:13;8.51;65.90
9861;DHT22;4969;52.304;4.968;2023-03-04T14:00:48;8.68;64.99
9861;DHT22;4969;52.304;4.968;2023-03-04T14:03:21;8.48;67.17
9861;DHT22;4969;52.304;4.968;2023-03-04T14:08:53;8.64;65.95
9861;DHT22;4969;52.304;4.968;2023-03-04T14:11:27;8.40;65.39
9861;DHT22;4969;52.304;4.968;2023-03-04T14:13:54;8.13;66.38
9861;DHT22;4969;52.304;4.968;2023-03-04T14:16:25;8.01;67.66
9861;DHT22;4969;52.304;4.968;2023-03-04T14:19:02;7.88;68.85
9861;DHT22;4969;52.304;4.968;2023-03-04T14:21:30;7.71;70.00
9861;DHT22;4969;52.304;4.968;2023-03-04T14:24:04;7.67;71.07
9861;DHT22;4969;52.304;4.968;2023-03-04T14:26:31;7.62;72.08
9861;DHT22;4969;52.304;4.968;2023-03-04T14:28:59;7.48;73.18
9861;DHT22;4969;52.304;4.968;2023-03-04T14:31:28;7.44;73.44
9861;DHT22;4969;52.304;4.968;2023-03-04T14:33:56;7.57;73.22
9861;DHT22;4969;52.304;4.968;2023-03-04T14:36:27;7.81;74.72
9861;DHT22;4969;52.304;4.968;2023-03-04T14:38:56;7.79;72.07
9861;DHT22;4969;52.304;4.968;2023-03-04T14:41:27;7.43;73.31
9861;DHT22;4969;52.304;4.968;2023-03-04T14:44:02;7.50;73.65
9861;DHT22;4969;52.304;4.968;2023-03-04T14:46:34;7.52;72.67
9861;DHT22;4969;52.304;4.968;2023-03-04T14:49:04;7.84;72.88
9861;DHT22;4969;52.304;4.968;2023-03-04T14:51:38;7.75;71.62
9861;DHT22;4969;52.304;4.968;2023-03-04T14:54:24;7.64;69.96
9861;DHT22;4969;52.304;4.968;2023-03-04T14:56:53;7.64;70.28
9861;DHT22;4969;52.304;4.968;2023-03-04T14:59:27;7.82;69.95
9861;DHT22;4969;52.304;4.968;2023-03-04T15:02:12;7.72;70.10
9861;DHT22;4969;52.304;4.968;2023-03-04T15:04:42;7.86;69.00
9861;DHT22;4969;52.304;4.968;2023-03-04T15:07:13;7.86;69.51
9861;DHT22;4969;52.304;4.968;2023-03-04T15:09:40;7.98;68.14
9861;DHT22;4969;52.304;4.968;2023-03-04T15:12:09;8.16;68.94
9861;DHT22;4969;52.304;4.968;2023-03-04T15:14:43;8.09;67.44
9861;DHT22;4969;52.304;4.968;2023-03-04T15:17:25;8.19;67.10
9861;DHT22;4969;52.304;4.968;2023-03-04T15:19:59;7.94;68.53
9861;DHT22;4969;52.304;4.968;2023-03-04T15:22:27;7.98;67.94
9861;DHT22;4969;52.304;4.968;2023-03-04T15:24:54;8.07;67.94
9861;DHT22;4969;52.304;4.968;2023-03-04T15:27:23;8.20;66.90
9861;DHT22;4969;52.304;4.968;2023-03-04T15:29:50;8.58;73.35
9861;DHT22;4969;52.304;4.968;2023-03-04T15:32:20;8.34;65.75
9861;DHT22;4969;52.304;4.968;2023-03-04T15:34:47;8.13;66.36
9861;DHT22;4969;52.304;4.968;2023-03-04T15:37:18;7.98;66.72
9861;DHT22;4969;52.304;4.968;2023-03-04T15:39:45;8.15;66.30
9861;DHT22;4969;52.304;4.968;2023-03-04T15:42:12;7.99;66.51
9861;DHT22;4969;52.304;4.968;2023-03-04T15:44:40;7.98;66.40
9861;DHT22;4969;52.304;4.968;2023-03-04T15:47:08;7.91;66.38
9861;DHT22;4969;52.304;4.968;2023-03-04T15:49:37;7.86;66.24
9861;DHT22;4969;52.304;4.968;2023-03-04T15:52:05;7.84;66.22
9861;DHT22;4969;52.304;4.968;2023-03-04T15:54:32;7.98;67.42
9861;DHT22;4969;52.304;4.968;2023-03-04T15:56:59;7.92;66.07
9861;DHT22;4969;52.304;4.968;2023-03-04T15:59:25;8.38;68.73
9861;DHT22;4969;52.304;4.968;2023-03-04T16:01:53;7.98;64.41
9861;DHT22;4969;52.304;4.968;2023-03-04T16:04:20;8.34;66.48
9861;DHT22;4969;52.304;4.968;2023-03-04T16:06:48;8.36;64.29
9861;DHT22;4969;52.304;4.968;2023-03-04T16:09:16;7.96;63.82
9861;DHT22;4969;52.304;4.968;2023-03-04T16:11:44;7.88;64.37
9861;DHT22;4969;52.304;4.968;2023-03-04T16:14:13;7.78;63.87
9861;DHT22;4969;52.304;4.968;2023-03-04T16:16:44;7.92;63.72
9861;DHT22;4969;52.304;4.968;2023-03-04T16:19:13;7.78;64.10
9861;DHT22;4969;52.304;4.968;2023-03-04T16:21:40;7.69;64.51
9861;DHT22;4969;52.304;4.968;2023-03-04T16:24:11;7.74;64.88
9861;DHT22;4969;52.304;4.968;2023-03-04T16:26:40;7.82;67.78
9861;DHT22;4969;52.304;4.968;2023-03-04T16:29:08;7.78;64.72
9861;DHT22;4969;52.304;4.968;2023-03-04T16:31:35;7.77;65.43
9861;DHT22;4969;52.304;4.968;2023-03-04T16:34:01;7.67;66.74
9861;DHT22;4969;52.304;4.968;2023-03-04T16:36:29;7.46;65.93